Time;durP1;ratioP1;P1;durP2;ratioP2;P2;SDS_P1;SDS_P2;PMS_P1;PMS_P2;Temp;Humidity;BMP_temperature;BMP_pressure;BME280_temperature;BME280_humidity;BME280_pressure;Samples;Min_cycle;Max_cycle;Signal;HPM_P1;HPM_P2
2022/01/20 00:01:38;;;;;;;24.43;10.13;;;0.30;99.90;;;;;;4353924;28;657594;-75
2022/01/20 00:04:34;;;;;;;24.55;8.35;;;0.30;99.90;;;;;;4352004;28;658031;-74
2022/01/20 00:07:41;;;;;;;30.42;12.70;;;0.40;99.90;;;;;;4360086;28;656584;-74
2022/01/20 00:26:00;;;;;;;19.27;8.43;;;1.00;99.90;;;;;;4335411;28;656895;-74
2022/01/20 00:28:51;;;;;;;16.88;6.05;;;1.10;99.90;;;;;;4331784;28;657393;-75
2022/01/20 00:31:47;;;;;;;14.43;6.63;;;1.10;99.90;;;;;;4355015;28;657368;-74
2022/01/20 00:35:10;;;;;;;20.77;7.73;;;1.10;99.90;;;;;;4333044;28;656960;-75
2022/01/20 00:37:56;;;;;;;18.50;8.17;;;1.10;99.90;;;;;;4334923;28;656553;-73
2022/01/20 00:40:44;;;;;;;13.13;5.60;;;1.20;99.90;;;;;;4391318;28;656293;-73
2022/01/20 00:43:31;;;;;;;18.00;8.90;;;1.20;99.90;;;;;;4383336;28;656277;-76
2022/01/20 00:46:19;;;;;;;13.40;4.80;;;1.20;99.90;;;;;;4358084;28;657524;-74
2022/01/20 00:49:09;;;;;;;25.73;10.50;;;1.20;99.90;;;;;;4379326;28;656722;-76
2022/01/20 00:51:57;;;;;;;20.57;8.73;;;1.20;99.90;;;;;;4381091;28;657655;-76
2022/01/20 00:54:44;;;;;;;12.90;6.63;;;1.30;99.90;;;;;;4379960;28;657204;-75
2022/01/20 00:57:33;;;;;;;17.35;7.32;;;1.20;99.90;;;;;;4351714;28;657067;-75
2022/01/20 01:00:21;;;;;;;23.13;9.97;;;1.30;99.90;;;;;;4378476;28;655773;-74
2022/01/20 01:03:08;;;;;;;20.43;10.10;;;1.30;99.90;;;;;;4356041;28;657458;-75
2022/01/20 01:06:09;;;;;;;19.13;8.77;;;1.30;99.90;;;;;;4373090;28;658138;-75
2022/01/20 01:08:57;;;;;;;17.30;7.90;;;1.20;99.90;;;;;;4344854;28;657270;-75
2022/01/20 01:11:46;;;;;;;26.53;10.47;;;1.30;99.90;;;;;;4361034;28;658088;-76
2022/01/20 01:14:35;;;;;;;18.63;8.77;;;1.20;99.90;;;;;;4351427;28;658806;-75
2022/01/20 01:20:29;;;;;;;20.40;9.93;;;1.30;99.90;;;;;;4330228;28;657340;-75
2022/01/20 01:23:18;;;;;;;10.80;5.23;;;1.30;99.90;;;;;;4379910;28;657343;-76
2022/01/20 01:26:06;;;;;;;11.13;5.63;;;1.30;99.90;;;;;;4352681;28;657251;-73
2022/01/20 01:28:56;;;;;;;18.80;8.53;;;1.30;99.90;;;;;;4355758;28;657871;-75
2022/01/20 01:31:44;;;;;;;17.30;8.43;;;1.30;99.90;;;;;;4353042;28;657550;-76
2022/01/20 01:34:35;;;;;;;20.47;9.30;;;1.30;99.90;;;;;;4357667;28;656894;-75
2022/01/20 01:38:22;;;;;;;17.97;8.63;;;1.30;99.90;;;;;;4344131;28;657083;-76
2022/01/20 01:40:36;;;;;;;23.77;9.75;;;1.30;99.90;;;;;;4331119;28;657583;-76
2022/01/20 01:43:26;;;;;;;18.87;8.60;;;1.30;99.90;;;;;;4354831;28;656550;-76
2022/01/20 01:46:14;;;;;;;18.63;8.43;;;1.30;99.90;;;;;;4351667;28;657831;-75
2022/01/20 01:49:03;;;;;;;19.92;8.75;;;1.30;99.90;;;;;;4344915;28;656585;-72
2022/01/20 01:51:51;;;;;;;15.83;8.33;;;1.30;99.90;;;;;;4374809;28;656782;-73
2022/01/20 01:54:38;;;;;;;21.27;8.93;;;1.40;99.90;;;;;;4351210;28;656746;-73
2022/01/20 01:57:28;;;;;;;10.70;4.97;;;1.40;99.90;;;;;;4372181;28;656511;-74
2022/01/20 02:00:16;;;;;;;16.40;7.63;;;1.40;99.90;;;;;;4337338;28;657904;-75
2022/01/20 02:03:04;;;;;;;17.63;8.73;;;1.40;99.90;;;;;;4358579;28;656997;-74
2022/01/20 02:06:07;;;;;;;15.87;6.57;;;1.50;99.90;;;;;;4374630;28;657140;-75
2022/01/20 02:09:09;;;;;;;17.77;9.00;;;1.40;99.90;;;;;;4351760;28;657036;-75
2022/01/20 02:18:36;;;;;;;16.50;8.10;;;1.50;99.90;;;;;;4353342;28;656664;-76
2022/01/20 02:21:25;;;;;;;15.20;7.27;;;1.50;99.90;;;;;;4342529;28;656281;-74
2022/01/20 02:24:12;;;;;;;19.47;8.30;;;1.40;99.90;;;;;;4357500;28;656829;-77
2022/01/20 02:27:00;;;;;;;17.27;8.27;;;1.40;99.90;;;;;;4375791;28;657094;-76
2022/01/20 02:29:47;;;;;;;15.83;7.67;;;1.50;99.90;;;;;;4351356;28;656410;-76
2022/01/20 02:32:35;;;;;;;15.77;7.83;;;1.50;99.90;;;;;;4378736;28;657040;-75
2022/01/20 02:35:23;;;;;;;20.87;8.73;;;1.50;99.90;;;;;;4338152;28;656650;-75
2022/01/20 02:38:16;;;;;;;14.00;5.77;;;1.60;99.90;;;;;;4379533;28;657606;-75
2022/01/20 02:47:29;;;;;;;10.77;5.10;;;1.60;99.90;;;;;;4297612;28;657848;-75
2022/01/20 02:50:17;;;;;;;12.87;5.23;;;1.70;99.90;;;;;;4313179;28;657071;-75
2022/01/20 02:53:04;;;;;;;14.10;6.57;;;1.70;99.90;;;;;;4316132;28;657956;-73
2022/01/20 02:55:54;;;;;;;13.83;6.53;;;1.70;99.90;;;;;;4308476;28;657180;-74
2022/01/20 02:58:42;;;;;;;11.93;6.67;;;1.70;99.90;;;;;;4320513;28;656617;-75
2022/01/20 03:01:29;;;;;;;13.17;6.13;;;1.70;99.90;;;;;;4295849;28;656861;-75
2022/01/20 03:04:17;;;;;;;9.75;4.50;;;1.70;99.90;;;;;;4308918;28;656869;-72
2022/01/20 03:07:05;;;;;;;12.13;5.90;;;1.70;99.90;;;;;;4330137;28;656448;-75
2022/01/20 03:09:52;;;;;;;10.10;5.30;;;1.60;99.90;;;;;;4301903;28;656797;-74
2022/01/20 03:12:41;;;;;;;14.90;7.53;;;1.60;99.90;;;;;;4326565;28;657593;-75
2022/01/20 03:15:29;;;;;;;15.73;6.50;;;1.50;99.90;;;;;;4297999;28;657391;-75
2022/01/20 03:18:16;;;;;;;12.83;5.33;;;1.50;99.90;;;;;;4324443;28;657410;-72
2022/01/20 03:21:04;;;;;;;16.83;8.10;;;1.50;99.90;;;;;;4309018;28;658135;-74
2022/01/20 03:23:51;;;;;;;15.33;6.57;;;1.40;99.90;;;;;;4379906;28;656271;-75
2022/01/20 03:26:39;;;;;;;14.43;6.70;;;1.40;99.90;;;;;;4352623;28;657345;-75
2022/01/20 03:29:28;;;;;;;9.43;4.77;;;1.40;99.90;;;;;;4379074;28;655916;-75
2022/01/20 03:32:16;;;;;;;18.30;7.90;;;1.40;99.90;;;;;;4364404;28;656050;-76
2022/01/20 03:35:04;;;;;;;18.50;7.57;;;1.40;99.90;;;;;;4359556;28;656818;-75
2022/01/20 03:37:51;;;;;;;12.80;6.80;;;1.40;99.90;;;;;;4375635;28;657168;-75
2022/01/20 03:40:39;;;;;;;15.67;8.63;;;1.40;99.90;;;;;;4353808;28;657272;-76
2022/01/20 03:43:26;;;;;;;14.80;6.43;;;1.40;99.90;;;;;;4382200;28;656367;-74
2022/01/20 03:46:16;;;;;;;13.33;6.67;;;1.50;99.90;;;;;;4346717;28;657965;-75
2022/01/20 03:49:09;;;;;;;15.83;6.87;;;1.50;99.90;;;;;;4356681;28;657690;-75
2022/01/20 03:51:57;;;;;;;12.03;6.10;;;1.50;99.90;;;;;;4337882;28;657202;-76
2022/01/20 03:54:44;;;;;;;15.17;5.83;;;1.50;99.90;;;;;;4375227;28;657414;-75
2022/01/20 03:57:32;;;;;;;11.23;4.50;;;1.60;99.90;;;;;;4360510;28;656695;-72
2022/01/20 04:00:20;;;;;;;11.57;5.77;;;1.60;99.90;;;;;;4378784;28;657954;-76
2022/01/20 04:03:09;;;;;;;10.93;5.43;;;1.70;99.90;;;;;;4359189;28;656253;-75
2022/01/20 04:06:00;;;;;;;14.07;6.03;;;1.70;99.90;;;;;;4369672;28;656643;-72
2022/01/20 04:08:48;;;;;;;11.10;6.20;;;1.70;99.90;;;;;;4355603;28;656573;-75
2022/01/20 04:11:36;;;;;;;13.03;6.50;;;1.70;99.90;;;;;;4375523;28;656760;-74
2022/01/20 04:14:25;;;;;;;16.07;6.17;;;1.70;99.90;;;;;;4352173;28;656539;-75
2022/01/20 04:17:17;;;;;;;12.97;6.17;;;1.70;99.90;;;;;;4359057;28;656734;-74
2022/01/20 04:20:08;;;;;;;12.90;6.37;;;1.60;99.90;;;;;;4356120;28;656910;-76
2022/01/20 04:22:56;;;;;;;13.43;6.33;;;1.60;99.90;;;;;;4348923;28;657082;-74
2022/01/20 04:25:43;;;;;;;13.93;5.90;;;1.60;99.90;;;;;;4359015;28;656744;-74
2022/01/20 04:28:30;;;;;;;10.70;5.43;;;1.50;99.90;;;;;;4377819;28;656949;-74
2022/01/20 04:31:18;;;;;;;7.37;4.00;;;1.50;99.90;;;;;;4358639;28;656409;-74
2022/01/20 04:34:06;;;;;;;15.13;7.27;;;1.40;99.90;;;;;;4372681;28;656434;-74
2022/01/20 04:36:55;;;;;;;14.07;7.17;;;1.40;99.90;;;;;;4357649;28;656966;-74
2022/01/20 04:39:47;;;;;;;18.07;7.50;;;1.40;99.90;;;;;;4355283;28;657170;-73
2022/01/20 04:42:37;;;;;;;13.00;6.77;;;1.40;99.90;;;;;;4351937;28;657544;-75
2022/01/20 04:45:31;;;;;;;13.80;5.73;;;1.40;99.90;;;;;;4355816;28;657459;-75
2022/01/20 04:48:27;;;;;;;14.40;8.47;;;1.40;99.90;;;;;;4355430;28;658094;-74
2022/01/20 04:57:25;;;;;;;12.70;6.30;;;1.40;99.90;;;;;;4350125;28;657476;-76
2022/01/20 05:00:13;;;;;;;13.83;7.57;;;1.50;99.90;;;;;;4357363;28;656995;-74
2022/01/20 05:03:03;;;;;;;15.38;8.07;;;1.40;99.90;;;;;;4360927;28;657041;-75
2022/01/20 05:05:51;;;;;;;14.30;6.80;;;1.40;99.90;;;;;;4361293;28;656181;-74
2022/01/20 05:08:39;;;;;;;15.63;7.40;;;1.40;99.90;;;;;;4352522;28;658239;-75
2022/01/20 05:11:28;;;;;;;14.77;7.40;;;1.40;99.90;;;;;;4361825;28;656500;-75
2022/01/20 05:14:15;;;;;;;14.70;7.83;;;1.40;99.90;;;;;;4330093;28;657956;-75
2022/01/20 05:17:03;;;;;;;14.13;6.93;;;1.40;99.90;;;;;;4348857;28;657224;-75
2022/01/20 05:19:51;;;;;;;11.03;5.50;;;1.40;99.90;;;;;;4369237;28;657052;-76
2022/01/20 05:22:38;;;;;;;19.23;6.60;;;1.50;99.90;;;;;;4337883;28;656571;-75
2022/01/20 05:25:26;;;;;;;15.63;7.67;;;1.50;99.90;;;;;;4365403;28;657307;-75
2022/01/20 05:28:15;;;;;;;13.90;6.70;;;1.50;99.90;;;;;;4359120;28;656727;-74
2022/01/20 05:31:02;;;;;;;16.03;6.40;;;1.50;99.90;;;;;;4356582;28;656581;-75
2022/01/20 05:33:50;;;;;;;15.83;7.90;;;1.60;99.90;;;;;;4373437;28;658212;-75
2022/01/20 05:36:37;;;;;;;16.10;7.30;;;1.60;99.90;;;;;;4346504;28;656928;-76
2022/01/20 05:39:26;;;;;;;12.50;6.30;;;1.60;99.90;;;;;;4382008;28;657566;-75
2022/01/20 05:42:13;;;;;;;11.87;6.60;;;1.60;99.90;;;;;;4348142;28;657806;-75
2022/01/20 05:45:03;;;;;;;11.30;5.43;;;1.60;99.90;;;;;;4359115;28;656290;-74
2022/01/20 05:47:59;;;;;;;16.23;7.60;;;1.50;99.90;;;;;;4342673;28;657809;-75
2022/01/20 05:50:47;;;;;;;15.43;7.10;;;1.50;99.90;;;;;;4368344;28;657069;-75
2022/01/20 05:53:35;;;;;;;19.00;7.70;;;1.50;99.90;;;;;;4373604;28;657671;-75
2022/01/20 05:56:23;;;;;;;14.40;6.35;;;1.50;99.90;;;;;;4345603;28;657453;-75
2022/01/20 05:59:10;;;;;;;17.70;6.97;;;1.60;99.90;;;;;;4357256;28;656270;-74
2022/01/20 06:02:09;;;;;;;16.33;8.57;;;1.60;99.90;;;;;;4358352;28;657091;-75
2022/01/20 06:04:57;;;;;;;13.00;6.90;;;1.60;99.90;;;;;;4331062;28;656582;-76
2022/01/20 06:07:45;;;;;;;16.23;6.10;;;1.60;99.90;;;;;;4377322;28;657148;-73
2022/01/20 06:10:33;;;;;;;15.67;7.83;;;1.60;99.90;;;;;;4352132;28;656645;-74
2022/01/20 06:13:20;;;;;;;18.90;8.00;;;1.60;99.90;;;;;;4357143;28;656445;-73
2022/01/20 06:16:08;;;;;;;19.07;9.77;;;1.60;99.90;;;;;;4356019;28;656714;-75
2022/01/20 06:18:57;;;;;;;16.70;8.67;;;1.70;99.90;;;;;;4374422;28;657252;-75
2022/01/20 06:21:45;;;;;;;19.03;8.37;;;1.70;99.90;;;;;;4350283;28;658203;-75
2022/01/20 06:24:33;;;;;;;16.37;8.40;;;1.70;99.90;;;;;;4353319;28;656398;-76
2022/01/20 06:27:21;;;;;;;15.60;8.27;;;1.70;99.90;;;;;;4376169;28;656184;-75
2022/01/20 06:30:09;;;;;;;11.30;6.80;;;1.70;99.90;;;;;;4341817;28;656842;-75
2022/01/20 06:32:57;;;;;;;15.70;7.47;;;1.80;99.90;;;;;;4363338;28;656662;-75
2022/01/20 06:35:49;;;;;;;15.60;7.97;;;1.80;99.90;;;;;;4372899;28;657317;-75
2022/01/20 06:38:37;;;;;;;15.93;8.20;;;1.80;99.90;;;;;;4337595;28;656904;-75
2022/01/20 06:41:26;;;;;;;16.43;8.43;;;1.70;99.90;;;;;;4380483;28;657806;-75
2022/01/20 06:44:14;;;;;;;16.53;7.97;;;1.70;99.90;;;;;;4353958;28;657456;-76
2022/01/20 06:47:02;;;;;;;18.93;9.10;;;1.60;99.90;;;;;;4344982;28;656679;-72
2022/01/20 06:49:50;;;;;;;17.10;7.20;;;1.60;99.90;;;;;;4376251;28;657336;-76
2022/01/20 06:52:39;;;;;;;15.77;7.90;;;1.60;99.90;;;;;;4353571;28;656525;-75
2022/01/20 06:55:26;;;;;;;17.40;8.33;;;1.70;99.90;;;;;;4376972;28;656752;-75
2022/01/20 06:58:14;;;;;;;15.50;7.20;;;1.70;99.90;;;;;;4347960;28;657656;-74
2022/01/20 07:01:29;;;;;;;9.07;5.03;;;1.80;99.90;;;;;;4373214;28;656458;-74
2022/01/20 07:04:16;;;;;;;16.23;8.00;;;1.80;99.90;;;;;;4357501;28;655847;-75
2022/01/20 07:07:04;;;;;;;16.63;8.43;;;1.70;99.90;;;;;;4353542;28;657987;-76
2022/01/20 07:09:53;;;;;;;15.47;7.10;;;1.70;99.90;;;;;;4351949;28;657122;-74
2022/01/20 07:12:44;;;;;;;19.63;9.00;;;1.80;99.90;;;;;;4380523;28;656639;-76
2022/01/20 07:15:31;;;;;;;15.77;7.03;;;1.80;99.90;;;;;;4356426;28;657951;-75
2022/01/20 07:18:19;;;;;;;16.77;7.17;;;1.80;99.90;;;;;;4337993;28;657214;-75
2022/01/20 07:21:07;;;;;;;15.70;7.70;;;1.80;99.90;;;;;;4371425;28;655930;-75
2022/01/20 07:23:55;;;;;;;16.77;7.30;;;1.80;99.90;;;;;;4377036;28;657403;-75
2022/01/20 07:26:44;;;;;;;18.50;9.33;;;1.70;99.90;;;;;;4350358;28;656329;-76
2022/01/20 07:29:32;;;;;;;22.77;10.10;;;1.50;99.90;;;;;;4372666;28;657447;-75
2022/01/20 07:32:19;;;;;;;16.83;8.57;;;1.40;99.90;;;;;;4353545;28;658715;-75
2022/01/20 07:35:08;;;;;;;14.00;7.97;;;1.30;99.90;;;;;;4358803;28;657502;-75
2022/01/20 07:37:56;;;;;;;12.83;6.87;;;1.20;99.90;;;;;;4365647;28;656954;-75
2022/01/20 07:40:43;;;;;;;11.70;5.83;;;1.10;99.90;;;;;;4343477;28;656739;-75
2022/01/20 07:47:20;;;;;;;9.97;5.23;;;1.00;99.90;;;;;;4329680;28;657037;-75
2022/01/20 07:50:08;;;;;;;12.13;5.90;;;1.00;99.90;;;;;;4358323;28;655195;-75
2022/01/20 07:53:32;;;;;;;14.53;6.10;;;1.00;99.90;;;;;;4373491;28;657461;-75
2022/01/20 07:56:45;;;;;;;11.67;6.17;;;1.00;99.90;;;;;;4350435;28;657235;-75
2022/01/20 07:59:32;;;;;;;14.57;7.07;;;1.00;99.90;;;;;;4321144;28;656706;-75
2022/01/20 08:02:21;;;;;;;9.30;4.77;;;1.00;99.90;;;;;;4394049;28;656968;-75
2022/01/20 08:05:10;;;;;;;12.73;6.47;;;1.00;99.90;;;;;;4357770;28;657187;-75
2022/01/20 08:07:57;;;;;;;12.63;6.37;;;1.10;99.90;;;;;;4355447;28;656896;-75
2022/01/20 08:10:45;;;;;;;13.23;6.97;;;1.10;99.90;;;;;;4364932;28;657489;-75
2022/01/20 08:13:33;;;;;;;13.17;5.60;;;1.10;99.90;;;;;;4357803;28;656896;-75
2022/01/20 08:16:20;;;;;;;15.73;7.17;;;1.10;99.90;;;;;;4396652;28;657909;-74
2022/01/20 08:19:09;;;;;;;13.47;6.57;;;1.20;99.90;;;;;;4352438;28;656258;-75
2022/01/20 08:21:57;;;;;;;22.55;8.45;;;1.20;99.90;;;;;;4360972;28;657317;-74
2022/01/20 08:24:51;;;;;;;15.77;7.50;;;1.20;99.90;;;;;;4380713;28;658144;-75
2022/01/20 08:28:17;;;;;;;14.93;7.37;;;1.10;99.90;;;;;;4352712;28;656817;-74
2022/01/20 08:31:51;;;;;;;19.60;8.50;;;1.00;99.90;;;;;;4355051;28;656668;-74
2022/01/20 08:34:40;;;;;;;20.80;8.67;;;1.10;99.90;;;;;;4352883;28;657166;-75
2022/01/20 08:37:28;;;;;;;23.13;10.60;;;1.00;99.90;;;;;;4357230;28;656402;-75
2022/01/20 08:40:16;;;;;;;22.50;9.70;;;1.00;99.90;;;;;;4371954;28;658608;-75
2022/01/20 08:43:06;;;;;;;23.70;8.82;;;1.00;99.90;;;;;;4358765;28;657453;-74
2022/01/20 08:45:53;;;;;;;23.17;11.17;;;0.90;99.90;;;;;;4355295;28;656259;-75
2022/01/20 08:48:41;;;;;;;23.60;10.77;;;1.00;99.90;;;;;;4374813;28;659166;-75
2022/01/20 08:51:30;;;;;;;22.40;11.03;;;1.20;99.90;;;;;;4354796;28;658422;-74
2022/01/20 08:54:18;;;;;;;18.27;8.67;;;1.40;99.90;;;;;;4356472;28;657961;-75
2022/01/20 08:57:05;;;;;;;21.53;9.87;;;1.40;99.90;;;;;;4376761;28;657244;-75
2022/01/20 08:59:53;;;;;;;25.10;8.98;;;1.40;99.90;;;;;;4350375;28;657190;-75
2022/01/20 09:02:44;;;;;;;27.27;11.90;;;1.50;99.90;;;;;;4375599;28;657135;-75
2022/01/20 09:05:32;;;;;;;23.97;10.10;;;1.50;99.90;;;;;;4322131;28;658110;-74
2022/01/20 09:08:21;;;;;;;24.23;10.33;;;1.70;99.90;;;;;;4372733;28;658289;-74
2022/01/20 09:11:18;;;;;;;28.87;12.60;;;2.00;99.90;;;;;;4353847;28;658655;-75
2022/01/20 09:17:10;;;;;;;22.83;10.23;;;3.00;99.90;;;;;;4282999;28;657770;-74
2022/01/20 09:19:58;;;;;;;21.20;10.00;;;3.10;99.90;;;;;;4286851;28;658160;-75
2022/01/20 09:22:45;;;;;;;18.60;8.90;;;3.30;99.90;;;;;;4307105;29;658397;-75
2022/01/20 09:25:34;;;;;;;24.23;9.38;;;3.70;99.90;;;;;;4284229;28;656583;-75
2022/01/20 09:28:22;;;;;;;22.83;9.85;;;4.00;99.90;;;;;;4287386;28;656854;-75
2022/01/20 09:31:10;;;;;;;17.07;6.90;;;4.30;99.90;;;;;;4312562;28;657033;-74
2022/01/20 09:33:57;;;;;;;21.57;9.33;;;4.60;99.90;;;;;;4295715;28;656676;-75
2022/01/20 09:36:45;;;;;;;19.57;9.77;;;4.90;99.90;;;;;;4308839;28;656962;-75
2022/01/20 09:39:34;;;;;;;21.42;8.32;;;5.30;99.90;;;;;;4295913;28;656897;-73
2022/01/20 09:42:23;;;;;;;16.90;8.77;;;5.30;99.90;;;;;;4307432;28;656282;-76
2022/01/20 09:45:10;;;;;;;14.17;7.20;;;5.40;99.90;;;;;;4290620;28;657210;-72
2022/01/20 09:47:58;;;;;;;17.13;8.93;;;5.80;99.90;;;;;;4288589;28;656665;-75
2022/01/20 09:50:46;;;;;;;19.17;8.87;;;5.90;99.90;;;;;;4304823;28;656582;-75
2022/01/20 09:53:34;;;;;;;19.13;9.47;;;6.10;99.90;;;;;;4288324;28;657591;-75
2022/01/20 09:56:22;;;;;;;17.30;7.20;;;5.20;99.90;;;;;;4301991;28;656670;-74
2022/01/20 09:59:11;;;;;;;12.83;5.87;;;4.30;99.90;;;;;;4378816;28;658338;-73
2022/01/20 10:01:59;;;;;;;20.33;9.18;;;3.50;99.90;;;;;;4356086;28;656991;-73
2022/01/20 10:04:47;;;;;;;14.17;5.67;;;3.30;99.90;;;;;;4354373;28;658087;-73
2022/01/20 10:07:36;;;;;;;22.13;8.53;;;3.10;99.90;;;;;;4374847;28;657540;-74
2022/01/20 10:10:23;;;;;;;16.00;7.50;;;3.00;99.90;;;;;;4351261;28;656362;-73
2022/01/20 10:13:11;;;;;;;15.70;6.68;;;2.90;99.90;;;;;;4375808;28;656795;-73
2022/01/20 10:16:03;;;;;;;6.93;3.90;;;2.90;99.90;;;;;;4352488;28;658133;-74
2022/01/20 10:18:53;;;;;;;17.63;6.20;;;2.80;99.90;;;;;;4356039;28;655886;-75
2022/01/20 10:21:40;;;;;;;10.80;4.90;;;2.80;99.90;;;;;;4353940;28;657903;-74
2022/01/20 10:24:28;;;;;;;12.77;5.37;;;2.70;99.90;;;;;;4354481;28;656493;-75
2022/01/20 10:27:16;;;;;;;9.27;4.57;;;2.60;99.90;;;;;;4375119;28;656750;-73
2022/01/20 10:30:11;;;;;;;13.93;5.97;;;2.50;99.90;;;;;;4358458;28;656338;-74
2022/01/20 10:33:01;;;;;;;18.30;7.53;;;2.40;99.90;;;;;;4324936;28;656983;-75
2022/01/20 10:35:48;;;;;;;16.10;6.93;;;2.30;99.90;;;;;;4339833;28;657119;-74
2022/01/20 10:38:36;;;;;;;14.57;6.33;;;2.30;99.90;;;;;;4379290;28;656428;-74
2022/01/20 10:41:30;;;;;;;13.13;5.07;;;2.20;99.90;;;;;;4356132;28;656620;-75
2022/01/20 10:44:18;;;;;;;10.93;5.13;;;2.20;99.90;;;;;;4350646;28;656653;-75
2022/01/20 10:47:06;;;;;;;11.37;5.40;;;2.10;99.90;;;;;;4378952;28;657021;-72
2022/01/20 10:49:56;;;;;;;12.40;6.07;;;2.10;99.90;;;;;;4352195;28;657711;-73
2022/01/20 10:52:44;;;;;;;17.53;6.87;;;2.10;99.90;;;;;;4341944;28;657007;-73
2022/01/20 10:55:34;;;;;;;16.23;6.47;;;2.00;99.90;;;;;;4353972;28;656568;-72
2022/01/20 10:58:24;;;;;;;16.03;5.73;;;2.10;99.90;;;;;;4374164;28;656695;-73
2022/01/20 11:01:16;;;;;;;7.40;3.57;;;2.00;99.90;;;;;;4372522;28;656744;-72
2022/01/20 11:04:04;;;;;;;8.83;3.40;;;2.10;99.90;;;;;;4330536;28;656321;-74
2022/01/20 11:06:55;;;;;;;8.57;3.30;;;2.10;99.90;;;;;;4374909;28;655206;-75
2022/01/20 11:09:45;;;;;;;8.07;3.37;;;2.10;99.90;;;;;;4357320;28;655209;-73
2022/01/20 11:12:34;;;;;;;9.10;2.17;;;1.90;99.90;;;;;;4355912;28;656036;-75
2022/01/20 11:15:23;;;;;;;14.47;2.87;;;1.50;99.90;;;;;;4378109;28;655206;-75
2022/01/20 11:18:10;;;;;;;4.10;1.53;;;1.00;99.90;;;;;;4344376;28;656901;-76
2022/01/20 11:20:59;;;;;;;2.22;1.05;;;0.30;99.90;;;;;;4348709;28;655616;-75
2022/01/20 11:23:48;;;;;;;3.20;1.17;;;-0.10;99.90;;;;;;4357029;28;656626;-75
2022/01/20 11:26:36;;;;;;;2.20;1.10;;;-0.30;99.90;;;;;;4380156;28;657014;-76
2022/01/20 11:29:25;;;;;;;5.50;1.63;;;-0.60;99.90;;;;;;4353546;28;657321;-76
2022/01/20 11:32:23;;;;;;;4.20;1.13;;;-0.80;99.90;;;;;;4356791;28;656554;-75
2022/01/20 11:35:11;;;;;;;4.73;1.37;;;-0.90;99.90;;;;;;4356816;28;657289;-76
2022/01/20 11:38:00;;;;;;;4.70;1.47;;;-1.00;99.90;;;;;;4357311;28;657418;-74
2022/01/20 11:40:54;;;;;;;4.27;1.50;;;-0.90;99.90;;;;;;4356089;28;657039;-73
2022/01/20 11:43:42;;;;;;;4.50;1.53;;;-1.00;99.90;;;;;;4356950;28;657438;-75
2022/01/20 11:46:38;;;;;;;10.23;1.97;;;-1.10;99.90;;;;;;4354656;28;658105;-76
2022/01/20 11:49:34;;;;;;;5.70;1.80;;;-1.20;99.90;;;;;;4350252;28;658230;-76
2022/01/20 11:52:25;;;;;;;6.60;2.33;;;-1.20;99.90;;;;;;4378575;28;656760;-76
2022/01/20 11:55:14;;;;;;;4.20;1.42;;;-1.10;99.90;;;;;;4356535;28;656374;-75
2022/01/20 11:58:11;;;;;;;7.38;2.20;;;-1.10;99.90;;;;;;4382410;28;656095;-75
2022/01/20 12:01:00;;;;;;;7.80;2.77;;;-1.20;99.90;;;;;;4317602;28;657279;-75
2022/01/20 12:03:51;;;;;;;6.03;2.30;;;-1.10;99.90;;;;;;4360108;28;656477;-76
2022/01/20 12:06:42;;;;;;;11.30;3.97;;;-1.10;99.90;;;;;;4357602;28;656260;-75
2022/01/20 12:09:33;;;;;;;10.90;3.23;;;-1.10;99.90;;;;;;4359323;28;658057;-76
2022/01/20 12:12:25;;;;;;;10.32;2.92;;;-1.10;99.90;;;;;;4354344;28;658887;-76
2022/01/20 12:15:15;;;;;;;14.37;4.40;;;-1.10;99.90;;;;;;4345673;28;657722;-75
2022/01/20 12:18:03;;;;;;;17.87;4.27;;;-1.10;99.90;;;;;;4359701;28;657721;-75
2022/01/20 12:20:50;;;;;;;9.40;3.70;;;-1.10;99.90;;;;;;4362916;28;658225;-76
2022/01/20 12:23:42;;;;;;;14.17;5.00;;;-1.10;99.90;;;;;;4342968;28;656689;-75
2022/01/20 12:26:34;;;;;;;12.10;3.43;;;-1.00;99.90;;;;;;4338878;28;657871;-76
2022/01/20 12:29:23;;;;;;;7.13;3.20;;;-1.00;99.90;;;;;;4335004;28;657491;-75
2022/01/20 12:32:16;;;;;;;13.93;3.97;;;-1.10;99.90;;;;;;4380622;28;656958;-75
2022/01/20 12:35:04;;;;;;;12.30;4.47;;;-1.10;99.90;;;;;;4340930;28;657474;-75
2022/01/20 12:37:52;;;;;;;8.02;3.38;;;-1.10;99.90;;;;;;4357496;28;657674;-74
2022/01/20 12:40:40;;;;;;;11.43;3.60;;;-1.10;99.90;;;;;;4382791;28;657099;-76
2022/01/20 12:43:42;;;;;;;8.50;3.27;;;-1.10;99.90;;;;;;4341639;28;657881;-76
2022/01/20 12:46:31;;;;;;;9.60;2.83;;;-1.00;99.90;;;;;;4350129;28;658168;-75
2022/01/20 12:49:20;;;;;;;4.00;1.73;;;-1.00;99.90;;;;;;4360444;28;656667;-75
2022/01/20 12:52:08;;;;;;;2.70;1.30;;;-1.10;99.90;;;;;;4360272;28;656928;-75
2022/01/20 12:54:55;;;;;;;4.28;1.38;;;-1.10;99.90;;;;;;4377995;28;657552;-74
2022/01/20 12:57:43;;;;;;;7.20;1.73;;;-1.20;99.90;;;;;;4354069;28;656466;-74
2022/01/20 13:00:31;;;;;;;9.80;2.13;;;-1.10;99.90;;;;;;4376160;28;655937;-74
2022/01/20 13:03:18;;;;;;;5.93;1.80;;;-1.10;99.90;;;;;;4356282;28;656627;-74
2022/01/20 13:06:10;;;;;;;3.53;1.50;;;-1.20;99.90;;;;;;4360066;28;656596;-73
2022/01/20 13:09:00;;;;;;;4.53;1.50;;;-1.40;99.90;;;;;;4343718;28;656515;-73
2022/01/20 13:11:53;;;;;;;7.77;2.40;;;-1.40;99.90;;;;;;4355227;28;656498;-73
2022/01/20 13:14:43;;;;;;;4.67;1.50;;;-1.50;99.90;;;;;;4349619;28;657661;-74
2022/01/20 13:17:32;;;;;;;8.30;2.28;;;-1.60;99.80;;;;;;4352038;28;657432;-74
2022/01/20 13:20:22;;;;;;;6.70;2.30;;;-1.70;99.90;;;;;;4354849;28;657218;-73
2022/01/20 13:23:54;;;;;;;5.93;1.97;;;-1.70;99.90;;;;;;4343738;28;657674;-74
2022/01/20 13:26:24;;;;;;;2.80;1.20;;;-1.80;99.90;;;;;;4335246;28;657532;-75
2022/01/20 13:29:11;;;;;;;4.63;1.40;;;-1.80;99.40;;;;;;4370008;28;656294;-74
2022/01/20 13:32:00;;;;;;;7.57;2.53;;;-0.60;96.20;;;;;;4356855;28;657075;-76
2022/01/20 13:34:55;;;;;;;5.53;1.70;;;1.70;86.90;;;;;;4356677;28;656270;-75
2022/01/20 13:37:45;;;;;;;8.63;2.33;;;3.30;70.30;;;;;;4359111;28;655897;-75
2022/01/20 13:40:34;;;;;;;6.27;1.87;;;3.80;67.30;;;;;;4361079;28;655138;-75
2022/01/20 13:46:28;;;;;;;6.03;2.00;;;4.30;60.80;;;;;;4331264;28;656495;-75
2022/01/20 13:49:17;;;;;;;6.80;1.80;;;3.70;60.50;;;;;;4376570;28;654892;-75
2022/01/20 13:52:07;;;;;;;6.63;2.00;;;2.80;64.20;;;;;;4354523;28;655709;-75
2022/01/20 13:54:55;;;;;;;6.57;2.30;;;1.50;66.90;;;;;;4352854;28;656084;-75
2022/01/20 13:57:44;;;;;;;6.43;2.00;;;0.80;72.00;;;;;;4354443;28;656045;-75
2022/01/20 14:00:34;;;;;;;4.53;1.48;;;0.30;78.60;;;;;;4359848;28;655668;-75
2022/01/20 14:03:21;;;;;;;5.17;1.97;;;-0.10;80.70;;;;;;4376702;28;656138;-75
2022/01/20 14:06:09;;;;;;;3.07;1.37;;;-0.40;87.00;;;;;;4352629;28;658093;-74
2022/01/20 14:08:57;;;;;;;11.37;1.90;;;-0.50;86.20;;;;;;4372587;28;657070;-75
2022/01/20 14:11:47;;;;;;;6.13;1.53;;;-0.70;85.00;;;;;;4377272;28;657856;-76
2022/01/20 14:14:36;;;;;;;7.50;2.03;;;-0.90;85.60;;;;;;4345598;28;657752;-75
2022/01/20 14:17:25;;;;;;;4.37;1.80;;;-0.80;87.80;;;;;;4347819;28;658236;-76
2022/01/20 14:20:13;;;;;;;14.57;1.83;;;-0.40;87.80;;;;;;4356256;28;656991;-75
2022/01/20 14:23:02;;;;;;;10.00;2.73;;;-0.10;80.80;;;;;;4374152;28;657517;-75
2022/01/20 14:25:50;;;;;;;7.00;2.73;;;-0.20;83.00;;;;;;4348795;28;658330;-75
2022/01/20 14:28:37;;;;;;;13.77;2.90;;;0.40;76.50;;;;;;4354448;28;656889;-75
2022/01/20 14:31:26;;;;;;;16.50;3.10;;;0.40;76.90;;;;;;4365643;28;657973;-75
2022/01/20 14:34:14;;;;;;;8.33;1.90;;;0.20;77.90;;;;;;4354044;28;658127;-75
2022/01/20 14:37:02;;;;;;;8.97;2.90;;;-0.20;77.00;;;;;;4372546;28;655801;-75
2022/01/20 14:39:50;;;;;;;10.63;2.40;;;-0.50;81.10;;;;;;4378196;28;657380;-76
2022/01/20 14:42:37;;;;;;;3.40;1.50;;;-0.70;84.20;;;;;;4352709;28;658017;-75
2022/01/20 14:45:25;;;;;;;13.20;2.10;;;-0.80;86.50;;;;;;4373478;28;656801;-74
2022/01/20 14:48:15;;;;;;;10.23;2.53;;;-0.90;88.40;;;;;;4356410;28;657475;-74
2022/01/20 14:51:04;;;;;;;10.17;3.00;;;-1.00;88.30;;;;;;4355574;28;658662;-75
2022/01/20 14:53:52;;;;;;;10.67;2.60;;;-1.00;89.40;;;;;;4377244;28;657462;-77
2022/01/20 14:56:40;;;;;;;10.57;3.00;;;-1.10;90.80;;;;;;4378383;28;658789;-76
2022/01/20 14:59:30;;;;;;;13.57;2.70;;;-1.20;90.70;;;;;;4354159;28;657811;-73
2022/01/20 15:02:17;;;;;;;8.47;1.93;;;-1.20;91.10;;;;;;4359436;28;657563;-75
2022/01/20 15:05:09;;;;;;;7.63;1.77;;;-1.30;91.50;;;;;;4381717;28;657571;-75
2022/01/20 15:07:57;;;;;;;7.60;2.20;;;-1.40;91.90;;;;;;4337754;28;656986;-76
2022/01/20 15:10:45;;;;;;;6.00;1.87;;;-1.50;93.70;;;;;;4383194;28;657990;-76
2022/01/20 15:13:33;;;;;;;11.50;4.37;;;-1.60;94.90;;;;;;4359829;28;656836;-75
2022/01/20 15:16:21;;;;;;;4.07;1.43;;;-1.70;95.70;;;;;;4365952;28;658194;-76
2022/01/20 15:19:09;;;;;;;16.40;3.57;;;-1.80;97.70;;;;;;4368814;28;657017;-75